createdAt,value
2022-10-20T00:02:05.587Z,31.92
2022-10-20T00:04:32.457Z,29.17
2022-10-20T00:06:59.339Z,30.55
2022-10-20T00:09:26.171Z,34.72
2022-10-20T00:11:53.014Z,34.50
2022-10-20T00:14:19.833Z,32.47
2022-10-20T00:16:46.722Z,32.03
2022-10-20T00:19:13.540Z,36.05
2022-10-20T00:21:40.422Z,37.60
2022-10-20T00:24:07.222Z,35.63
2022-10-20T00:26:34.086Z,33.38
2022-10-20T00:29:02.877Z,39.05
2022-10-20T00:31:30.358Z,45.20
2022-10-20T00:33:57.655Z,48.55
2022-10-20T00:36:24.596Z,36.13
2022-10-20T00:38:56.025Z,41.00
2022-10-20T00:41:22.924Z,46.50
2022-10-20T00:44:01.493Z,40.53
2022-10-20T00:46:41.234Z,39.60
2022-10-20T00:49:26.201Z,42.22
2022-10-20T00:51:54.816Z,47.83
2022-10-20T00:54:25.762Z,39.92
2022-10-20T00:56:55.713Z,55.15
2022-10-20T00:59:26.365Z,52.50
2022-10-20T01:01:54.698Z,36.70
2022-10-20T01:04:22.097Z,36.95
2022-10-20T01:06:49.017Z,44.63
2022-10-20T01:09:15.829Z,37.47
2022-10-20T01:11:58.769Z,36.83
2022-10-20T01:15:07.820Z,46.20
2022-10-20T01:17:46.840Z,38.85
2022-10-20T01:20:41.081Z,40.28
2022-10-20T01:23:45.729Z,42.55
2022-10-20T01:26:36.899Z,47.88
2022-10-20T01:29:16.385Z,42.17
2022-10-20T01:32:11.720Z,41.90
2022-10-20T01:34:52.187Z,37.47
2022-10-20T01:37:48.332Z,45.30
2022-10-20T01:40:27.658Z,39.25
2022-10-20T01:42:58.232Z,49.05
2022-10-20T01:45:28.186Z,44.08
2022-10-20T01:47:56.174Z,49.55
2022-10-20T01:50:24.911Z,47.35
2022-10-20T01:52:58.551Z,47.47
2022-10-20T01:55:25.880Z,37.25
2022-10-20T01:58:11.570Z,40.78
2022-10-20T02:00:39.740Z,45.58
2022-10-20T02:03:12.563Z,42.15
2022-10-20T02:05:48.478Z,46.90
2022-10-20T02:08:33.393Z,43.83
2022-10-20T02:11:03.784Z,35.85
2022-10-20T02:13:31.276Z,44.78
2022-10-20T02:16:02.931Z,45.22
2022-10-20T02:18:38.772Z,44.90
2022-10-20T02:21:06.875Z,42.95
2022-10-20T02:23:37.476Z,45.00
2022-10-20T02:26:07.367Z,43.67
2022-10-20T02:28:37.627Z,44.78
2022-10-20T02:31:05.234Z,40.70
2022-10-20T02:33:34.013Z,42.47
2022-10-20T02:36:04.025Z,41.67
2022-10-20T02:38:31.207Z,46.63
2022-10-20T02:40:58.017Z,45.35
2022-10-20T02:43:24.874Z,45.08
2022-10-20T02:45:51.638Z,47.15
2022-10-20T02:48:18.614Z,42.35
2022-10-20T02:50:45.377Z,44.40
2022-10-20T02:53:12.228Z,43.38
2022-10-20T02:55:39.033Z,52.63
2022-10-20T02:58:05.834Z,46.53
2022-10-20T03:00:32.599Z,44.55
2022-10-20T03:03:00.155Z,50.58
2022-10-20T03:05:29.845Z,45.85
2022-10-20T03:07:56.702Z,45.15
2022-10-20T03:10:23.724Z,45.72
2022-10-20T03:12:50.553Z,44.03
2022-10-20T03:15:17.529Z,45.13
2022-10-20T03:17:44.508Z,46.22
2022-10-20T03:20:11.503Z,48.63
2022-10-20T03:22:38.352Z,52.30
2022-10-20T03:25:05.532Z,47.80
2022-10-20T03:27:32.395Z,46.80
2022-10-20T03:29:59.169Z,47.08
2022-10-20T03:32:26.085Z,50.10
2022-10-20T03:34:52.881Z,49.55
2022-10-20T03:37:19.814Z,58.50
2022-10-20T03:39:46.700Z,45.25
2022-10-20T03:42:32.284Z,46.83
2022-10-20T03:44:59.236Z,46.97
2022-10-20T03:47:25.966Z,51.60
2022-10-20T03:49:52.846Z,48.05
2022-10-20T03:52:19.774Z,45.65
2022-10-20T03:54:46.614Z,52.63
2022-10-20T03:57:13.447Z,50.08
2022-10-20T03:59:40.306Z,50.47
2022-10-20T04:02:07.150Z,53.10
2022-10-20T04:04:34.075Z,54.97
2022-10-20T04:07:00.916Z,50.47
2022-10-20T04:09:27.716Z,52.22
2022-10-20T04:11:54.498Z,52.92
2022-10-20T04:14:21.430Z,55.88
2022-10-20T04:16:48.169Z,53.03
2022-10-20T04:19:15.133Z,56.45
2022-10-20T04:21:41.965Z,56.97
2022-10-20T04:24:08.833Z,54.85
2022-10-20T04:26:35.792Z,59.03
2022-10-20T04:29:02.945Z,54.60
2022-10-20T04:31:29.708Z,52.45
2022-10-20T04:33:56.588Z,58.38
2022-10-20T04:36:23.396Z,51.60
2022-10-20T04:38:50.193Z,56.05
2022-10-20T04:41:16.996Z,55.22
2022-10-20T04:43:43.929Z,54.28
2022-10-20T04:46:11.070Z,57.72
2022-10-20T04:48:42.062Z,53.95
2022-10-20T04:51:12.495Z,56.92
2022-10-20T04:53:39.733Z,54.78
2022-10-20T04:56:08.541Z,60.63
2022-10-20T04:58:56.193Z,58.10
2022-10-20T05:01:25.604Z,51.95
2022-10-20T05:03:52.472Z,64.03
2022-10-20T05:06:22.499Z,57.28
2022-10-20T05:08:51.879Z,55.63
2022-10-20T05:11:21.095Z,54.90
2022-10-20T05:13:48.582Z,56.13
2022-10-20T05:16:17.520Z,60.15
2022-10-20T05:18:44.907Z,57.90
2022-10-20T05:21:17.102Z,56.05
2022-10-20T05:23:45.121Z,57.33
2022-10-20T05:26:14.934Z,58.38
2022-10-20T05:28:47.642Z,53.97
2022-10-20T05:31:16.491Z,57.08
2022-10-20T05:33:55.000Z,58.22
2022-10-20T05:36:25.117Z,51.70
2022-10-20T05:38:54.434Z,57.85
2022-10-20T05:41:24.142Z,53.80
2022-10-20T05:43:52.889Z,49.40
2022-10-20T05:46:20.839Z,59.28
2022-10-20T05:48:47.786Z,55.00
2022-10-20T05:51:21.377Z,47.50
2022-10-20T05:53:48.293Z,55.90
2022-10-20T05:56:20.633Z,53.63
2022-10-20T05:58:48.217Z,54.80
2022-10-20T06:01:24.415Z,61.63
2022-10-20T06:03:55.023Z,63.33
2022-10-20T06:06:24.520Z,59.83
2022-10-20T06:08:51.909Z,55.58
2022-10-20T06:11:20.460Z,52.92
2022-10-20T06:13:50.065Z,52.28
2022-10-20T06:16:25.429Z,57.40
2022-10-20T06:18:53.283Z,49.20
2022-10-20T06:21:23.208Z,64.20
2022-10-20T06:23:50.825Z,55.88
2022-10-20T06:26:20.613Z,66.30
2022-10-20T06:28:51.303Z,52.45
2022-10-20T06:31:39.298Z,66.20
2022-10-20T06:34:08.424Z,59.75
2022-10-20T06:36:39.634Z,58.33
2022-10-20T06:39:08.548Z,51.78
2022-10-20T06:41:35.483Z,58.67
2022-10-20T06:44:02.705Z,51.13
2022-10-20T06:46:31.923Z,54.78
2022-10-20T06:49:03.770Z,52.78
2022-10-20T06:51:31.795Z,50.25
2022-10-20T06:53:59.948Z,46.22
2022-10-20T06:56:29.075Z,53.70
2022-10-20T06:58:57.304Z,57.25
2022-10-20T07:01:32.905Z,59.60
2022-10-20T07:04:24.738Z,55.38
2022-10-20T07:06:51.638Z,55.15
2022-10-20T07:09:19.447Z,53.05
2022-10-20T07:11:50.160Z,56.40
2022-10-20T07:14:17.379Z,49.63
2022-10-20T07:16:44.367Z,46.55
2022-10-20T07:19:11.541Z,50.58
2022-10-20T07:21:41.589Z,52.22
2022-10-20T07:24:10.001Z,43.58
2022-10-20T07:26:39.258Z,43.17
2022-10-20T07:29:06.375Z,43.40
2022-10-20T07:31:39.734Z,46.08
2022-10-20T07:34:26.102Z,55.03
2022-10-20T07:36:53.785Z,54.90
2022-10-20T07:39:20.790Z,41.55
2022-10-20T07:41:48.360Z,39.85
2022-10-20T07:44:16.477Z,50.72
2022-10-20T07:46:43.671Z,43.22
2022-10-20T07:49:39.155Z,41.38
2022-10-20T07:51:57.529Z,42.20
2022-10-20T07:54:24.368Z,35.03
2022-10-20T07:56:51.226Z,45.95
2022-10-20T07:59:18.826Z,43.80
2022-10-20T08:01:46.303Z,41.90
2022-10-20T08:04:13.174Z,37.03
2022-10-20T08:06:40.077Z,40.80
2022-10-20T08:09:07.382Z,41.28
2022-10-20T08:11:34.979Z,37.80
2022-10-20T08:14:01.971Z,38.80
2022-10-20T08:21:59.298Z,38.70
2022-10-20T08:24:26.176Z,43.17
2022-10-20T08:26:53.021Z,37.05
2022-10-20T08:29:19.867Z,34.10
2022-10-20T08:31:46.747Z,33.75
2022-10-20T08:34:13.506Z,30.63
2022-10-20T08:36:40.348Z,40.80
2022-10-20T08:39:07.216Z,36.03
2022-10-20T08:42:02.765Z,40.60
2022-10-20T08:44:34.586Z,32.80
2022-10-20T08:47:14.500Z,33.38
2022-10-20T08:49:41.431Z,36.53
2022-10-20T08:52:15.247Z,38.53
2022-10-20T08:54:42.420Z,34.80
2022-10-20T08:57:27.583Z,36.00
2022-10-20T08:59:56.518Z,27.42
2022-10-20T09:02:23.566Z,33.25
2022-10-20T09:04:58.547Z,31.20
2022-10-20T09:07:31.659Z,26.67
2022-10-20T09:10:18.629Z,30.52
2022-10-20T09:12:47.100Z,27.88
2022-10-20T09:15:16.718Z,32.40
2022-10-20T09:17:49.247Z,28.10
2022-10-20T09:20:38.243Z,30.95
2022-10-20T09:23:16.658Z,32.97
2022-10-20T09:25:53.337Z,28.73
2022-10-20T09:28:26.405Z,32.17
2022-10-20T09:30:54.624Z,34.67
2022-10-20T09:33:29.016Z,36.53
2022-10-20T09:36:05.041Z,35.50
2022-10-20T09:38:35.023Z,37.47
2022-10-20T09:41:13.545Z,35.67
2022-10-20T09:43:58.065Z,32.83
2022-10-20T09:46:32.054Z,31.42
2022-10-20T09:48:59.265Z,36.65
2022-10-20T09:51:30.896Z,31.15
2022-10-20T09:54:01.915Z,30.58
2022-10-20T09:56:38.788Z,29.70
2022-10-20T09:59:21.062Z,33.58
2022-10-20T10:02:02.755Z,28.60
2022-10-20T10:04:41.121Z,29.38
2022-10-20T10:07:26.311Z,30.33
2022-10-20T10:10:21.757Z,29.83
2022-10-20T10:12:56.890Z,27.67
2022-10-20T10:15:26.666Z,29.00
2022-10-20T10:17:54.478Z,23.40
2022-10-20T10:20:24.135Z,27.58
2022-10-20T10:22:51.197Z,27.08
2022-10-20T10:25:29.524Z,23.60
2022-10-20T10:28:09.317Z,24.38
2022-10-20T10:30:38.297Z,26.20
2022-10-20T10:33:37.357Z,26.95
2022-10-20T10:36:13.866Z,26.77
2022-10-20T10:38:40.879Z,21.60
2022-10-20T10:41:28.486Z,20.92
2022-10-20T10:44:18.665Z,28.40
2022-10-20T10:47:07.375Z,22.17
2022-10-20T10:50:03.718Z,23.15
2022-10-20T10:55:21.228Z,26.65
2022-10-20T10:58:05.055Z,23.70
2022-10-20T11:00:59.765Z,22.02
2022-10-20T11:03:59.992Z,24.55
2022-10-20T11:06:44.839Z,19.52
2022-10-20T11:09:42.078Z,21.27
2022-10-20T11:12:17.812Z,25.80
2022-10-20T11:15:20.557Z,21.55
2022-10-20T11:18:19.797Z,23.77
2022-10-20T11:21:17.163Z,18.58
2022-10-20T11:24:06.014Z,18.55
2022-10-20T11:26:37.124Z,17.60
2022-10-20T11:29:09.776Z,16.40
2022-10-20T11:31:40.356Z,17.60
2022-10-20T11:34:21.370Z,14.68
2022-10-20T11:37:05.381Z,14.30
2022-10-20T11:39:54.184Z,18.65
2022-10-20T11:42:36.467Z,16.65
2022-10-20T11:45:22.705Z,12.63
2022-10-20T11:47:55.645Z,12.30
2022-10-20T11:50:23.456Z,13.27
2022-10-20T11:53:06.693Z,11.23
2022-10-20T11:55:43.817Z,14.38
2022-10-20T11:58:34.058Z,19.05
2022-10-20T12:01:22.553Z,17.15
2022-10-20T12:04:24.168Z,12.50
2022-10-20T12:07:26.723Z,11.60
2022-10-20T12:10:20.081Z,19.58
2022-10-20T12:13:24.751Z,14.43
2022-10-20T12:15:52.925Z,16.08
2022-10-20T12:18:26.546Z,15.02
2022-10-20T12:21:02.108Z,16.23
2022-10-20T12:23:44.183Z,19.58
2022-10-20T12:26:29.934Z,15.25
2022-10-20T12:28:57.619Z,15.35
2022-10-20T12:31:25.731Z,12.80
2022-10-20T12:33:53.356Z,14.75
2022-10-20T12:36:37.230Z,14.50
2022-10-20T12:39:12.948Z,14.95
2022-10-20T12:41:57.511Z,14.32
2022-10-20T12:44:25.593Z,12.05
2022-10-20T12:47:19.646Z,11.82
2022-10-20T12:49:57.463Z,10.05
2022-10-20T12:52:29.169Z,12.20
2022-10-20T12:55:04.824Z,15.68
2022-10-20T12:57:45.064Z,11.77
2022-10-20T13:00:23.640Z,12.88
2022-10-20T13:03:00.497Z,14.52
2022-10-20T13:05:46.621Z,11.23
2022-10-20T13:08:21.116Z,12.02
2022-10-20T13:10:49.321Z,17.00
2022-10-20T13:13:19.175Z,11.23
2022-10-20T13:15:47.580Z,13.43
2022-10-20T13:18:17.330Z,11.23
2022-10-20T13:20:56.194Z,13.82
2022-10-20T13:23:44.862Z,14.07
2022-10-20T13:26:30.951Z,17.35
2022-10-20T13:29:00.795Z,13.77
2022-10-20T13:31:33.591Z,22.27
2022-10-20T13:34:09.372Z,15.65
2022-10-20T13:36:42.515Z,14.50
2022-10-20T13:39:47.578Z,10.63
2022-10-20T13:42:29.464Z,12.65
2022-10-20T13:45:05.279Z,10.13
2022-10-20T13:47:46.641Z,14.48
2022-10-20T13:50:20.127Z,18.95
2022-10-20T13:52:52.841Z,12.40
2022-10-20T13:55:23.197Z,9.15
2022-10-20T13:58:21.461Z,13.10
2022-10-20T14:01:03.947Z,13.00
2022-10-20T14:03:40.113Z,18.98
2022-10-20T14:06:07.083Z,13.68
2022-10-20T14:08:43.484Z,23.65
2022-10-20T14:11:11.332Z,26.10
2022-10-20T14:13:38.159Z,48.92
2022-10-20T14:16:07.181Z,103.90
2022-10-20T14:18:38.240Z,74.07
2022-10-20T14:21:17.268Z,61.67
2022-10-20T14:23:46.265Z,10.27
2022-10-20T14:26:19.763Z,10.93
2022-10-20T14:28:49.405Z,8.35
2022-10-20T14:31:16.614Z,9.75
2022-10-20T14:33:49.200Z,12.00
2022-10-20T14:36:28.458Z,7.25
2022-10-20T14:39:01.036Z,12.82
2022-10-20T14:41:31.495Z,8.50
2022-10-20T14:44:05.910Z,9.25
2022-10-20T14:46:37.866Z,8.43
2022-10-20T14:49:27.014Z,7.65
2022-10-20T14:51:59.924Z,8.65
2022-10-20T14:54:37.974Z,7.97
2022-10-20T14:57:07.977Z,7.40
2022-10-20T15:00:06.122Z,11.23
2022-10-20T15:02:40.037Z,6.45
2022-10-20T15:05:33.627Z,7.05
2022-10-20T15:08:09.899Z,9.70
2022-10-20T15:10:37.932Z,9.02
2022-10-20T15:13:04.862Z,11.27
2022-10-20T15:15:39.168Z,9.55
2022-10-20T15:18:20.956Z,8.25
2022-10-20T15:20:49.066Z,7.90
2022-10-20T15:23:21.637Z,7.68
2022-10-20T15:26:05.673Z,8.60
2022-10-20T15:28:50.722Z,7.55
2022-10-20T15:31:23.477Z,4.83
2022-10-20T15:33:51.643Z,8.50
2022-10-20T15:36:28.403Z,3.78
2022-10-20T15:38:56.437Z,4.82
2022-10-20T15:41:25.941Z,8.38
2022-10-20T15:43:52.994Z,7.20
2022-10-20T15:46:20.724Z,3.40
2022-10-20T15:48:48.246Z,6.10
2022-10-20T15:51:25.594Z,5.78
2022-10-20T15:53:53.966Z,4.88
2022-10-20T15:56:21.580Z,4.72
2022-10-20T15:58:51.897Z,23.13
2022-10-20T16:01:20.835Z,8.88
2022-10-20T16:03:48.482Z,3.75
2022-10-20T16:06:17.943Z,5.28
2022-10-20T16:08:47.357Z,15.20
2022-10-20T16:11:15.838Z,18.33
2022-10-20T16:13:43.122Z,4.82
2022-10-20T16:16:13.946Z,5.82
2022-10-20T16:18:40.888Z,2.63
2022-10-20T16:21:08.807Z,4.90
2022-10-20T16:23:40.564Z,3.50
2022-10-20T16:26:11.363Z,2.88
2022-10-20T16:28:38.674Z,6.57
2022-10-20T16:31:10.973Z,5.40
2022-10-20T16:33:38.297Z,7.28
2022-10-20T16:38:39.181Z,4.25
2022-10-20T16:41:10.744Z,4.97
2022-10-20T16:43:39.742Z,4.15
2022-10-20T16:46:08.036Z,4.53
2022-10-20T16:48:37.637Z,4.82
2022-10-20T16:51:10.161Z,7.47
2022-10-20T16:53:37.439Z,4.20
2022-10-20T16:56:04.566Z,4.70
2022-10-20T16:58:31.420Z,4.93
2022-10-20T17:01:00.916Z,5.72
2022-10-20T17:03:28.006Z,5.53
2022-10-20T17:06:03.098Z,5.07
2022-10-20T17:08:31.968Z,8.27
2022-10-20T17:11:01.482Z,6.47
2022-10-20T17:13:30.310Z,9.98
2022-10-20T17:16:02.787Z,7.72
2022-10-20T17:18:29.703Z,5.63
2022-10-20T17:20:56.876Z,6.07
2022-10-20T17:23:25.070Z,8.98
2022-10-20T17:25:53.282Z,7.15
2022-10-20T17:28:20.169Z,4.68
2022-10-20T17:30:48.513Z,5.30
2022-10-20T17:33:15.749Z,8.80
2022-10-20T17:35:48.707Z,8.80
2022-10-20T17:38:15.787Z,7.03
2022-10-20T17:40:42.559Z,7.70
2022-10-20T17:43:09.429Z,8.13
2022-10-20T17:45:38.146Z,13.63
2022-10-20T17:48:05.914Z,7.47
2022-10-20T17:50:33.114Z,9.13
2022-10-20T17:53:01.503Z,5.60
2022-10-20T17:55:29.036Z,5.82
2022-10-20T17:57:56.153Z,9.27
2022-10-20T18:00:37.732Z,7.85
2022-10-20T18:03:09.945Z,8.40
2022-10-20T18:05:37.155Z,6.28
2022-10-20T18:08:04.118Z,8.15
2022-10-20T18:10:30.909Z,6.40
2022-10-20T18:12:57.791Z,6.90
2022-10-20T18:15:24.542Z,4.93
2022-10-20T18:17:51.383Z,7.90
2022-10-20T18:20:18.235Z,13.00
2022-10-20T18:22:45.535Z,7.20
2022-10-20T18:25:12.297Z,8.75
2022-10-20T18:27:39.149Z,11.88
2022-10-20T18:30:08.035Z,10.93
2022-10-20T18:32:36.414Z,13.23
2022-10-20T18:35:03.562Z,10.38
2022-10-20T18:37:30.433Z,10.63
2022-10-20T18:39:57.208Z,10.75
2022-10-20T18:42:24.131Z,6.75
2022-10-20T18:44:50.912Z,13.02
2022-10-20T18:47:17.777Z,8.45
2022-10-20T18:49:44.575Z,11.35
2022-10-20T18:52:11.387Z,7.28
2022-10-20T18:54:39.416Z,9.70
2022-10-20T18:57:06.317Z,7.85
2022-10-20T18:59:33.061Z,10.75
2022-10-20T19:01:59.905Z,9.15
2022-10-20T19:04:26.754Z,9.05
2022-10-20T19:06:53.664Z,10.98
2022-10-20T19:09:21.613Z,10.60
2022-10-20T19:14:17.520Z,9.88
2022-10-20T19:16:46.101Z,9.63
2022-10-20T19:19:13.807Z,8.68
2022-10-20T19:21:41.056Z,14.35
2022-10-20T19:24:11.505Z,8.57
2022-10-20T19:26:40.983Z,8.52
2022-10-20T19:29:13.989Z,10.20
2022-10-20T19:31:42.576Z,13.13
2022-10-20T19:34:37.998Z,10.73
2022-10-20T19:37:05.839Z,13.70
2022-10-20T19:39:35.674Z,12.07
2022-10-20T19:42:04.160Z,12.82
2022-10-20T19:44:31.379Z,12.27
2022-10-20T19:46:58.959Z,15.65
2022-10-20T19:49:26.727Z,16.35
2022-10-20T19:51:54.000Z,13.10
2022-10-20T19:54:20.816Z,14.68
2022-10-20T19:56:47.730Z,17.70
2022-10-20T19:59:14.697Z,19.00
2022-10-20T20:01:41.628Z,20.10
2022-10-20T20:04:08.497Z,16.50
2022-10-20T20:06:35.488Z,20.75
2022-10-20T20:09:05.442Z,15.82
2022-10-20T20:11:32.593Z,17.98
2022-10-20T20:14:02.951Z,18.50
2022-10-20T20:16:30.277Z,20.83
2022-10-20T20:18:57.605Z,18.52
2022-10-20T20:21:25.718Z,22.02
2022-10-20T20:24:00.055Z,19.83
2022-10-20T20:26:35.835Z,26.38
2022-10-20T20:29:04.003Z,22.25
2022-10-20T20:31:31.121Z,19.23
2022-10-20T20:33:58.336Z,21.20
2022-10-20T20:36:27.396Z,20.38
2022-10-20T20:38:59.103Z,19.40
2022-10-20T20:41:27.892Z,20.60
2022-10-20T20:43:54.744Z,18.52
2022-10-20T20:46:23.518Z,19.23
2022-10-20T20:48:51.229Z,16.67
2022-10-20T20:51:18.092Z,17.10
2022-10-20T20:53:44.952Z,19.20
2022-10-20T20:56:14.015Z,18.95
2022-10-20T20:58:42.147Z,19.50
2022-10-20T21:01:15.747Z,18.13
2022-10-20T21:03:43.436Z,21.42
2022-10-20T21:06:12.709Z,17.80
2022-10-20T21:08:42.760Z,17.75
2022-10-20T21:11:12.348Z,21.17
2022-10-20T21:13:40.839Z,21.45
2022-10-20T21:16:19.623Z,27.50
2022-10-20T21:18:49.166Z,24.08
2022-10-20T21:21:24.426Z,21.92
2022-10-20T21:23:51.810Z,24.88
2022-10-20T21:26:20.623Z,25.20
2022-10-20T21:28:48.385Z,23.58
2022-10-20T21:31:18.578Z,25.30
2022-10-20T21:33:49.170Z,20.95
2022-10-20T21:36:17.541Z,23.13
2022-10-20T21:38:44.696Z,22.50
2022-10-20T21:41:23.232Z,19.67
2022-10-20T21:43:52.761Z,23.23
2022-10-20T21:46:31.981Z,21.20
2022-10-20T21:49:20.361Z,21.02
2022-10-20T21:51:50.809Z,22.98
2022-10-20T21:56:52.714Z,21.88
2022-10-20T21:59:28.002Z,20.55
2022-10-20T22:02:00.621Z,25.58
2022-10-20T22:04:28.981Z,22.67
2022-10-20T22:06:56.432Z,19.25
2022-10-20T22:09:23.769Z,25.58
2022-10-20T22:11:55.012Z,20.58
2022-10-20T22:14:22.142Z,15.35
2022-10-20T22:16:49.045Z,16.75
2022-10-20T22:19:22.282Z,16.83
2022-10-20T22:21:51.336Z,19.80
2022-10-20T22:24:19.102Z,12.70
2022-10-20T22:26:46.096Z,13.48
2022-10-20T22:29:13.438Z,13.90
2022-10-20T22:31:41.435Z,15.32
2022-10-20T22:34:09.545Z,13.95
2022-10-20T22:36:37.176Z,11.40
2022-10-20T22:39:04.497Z,12.05
2022-10-20T22:41:31.422Z,10.77
2022-10-20T22:43:58.475Z,12.55
2022-10-20T22:46:25.890Z,9.77
2022-10-20T22:48:52.782Z,12.35
2022-10-20T22:51:19.668Z,9.70
2022-10-20T22:53:46.461Z,15.10
2022-10-20T22:56:16.066Z,10.98
2022-10-20T22:58:43.052Z,11.25
2022-10-20T23:01:12.771Z,9.95
2022-10-20T23:03:40.299Z,7.80
2022-10-20T23:06:09.753Z,11.32
2022-10-20T23:08:48.530Z,12.90
2022-10-20T23:11:16.033Z,8.07
2022-10-20T23:13:43.287Z,7.63
2022-10-20T23:16:10.717Z,12.23
2022-10-20T23:18:37.793Z,8.75
2022-10-20T23:21:05.222Z,7.18
2022-10-20T23:23:35.378Z,8.88
2022-10-20T23:26:04.648Z,10.63
2022-10-20T23:28:32.257Z,8.82
2022-10-20T23:31:31.555Z,7.53
2022-10-20T23:33:58.529Z,8.30
2022-10-20T23:36:25.294Z,7.95
2022-10-20T23:38:52.359Z,10.15
2022-10-20T23:41:19.476Z,8.50
2022-10-20T23:43:46.298Z,10.32
2022-10-20T23:46:13.337Z,10.23
2022-10-20T23:48:40.683Z,9.68
2022-10-20T23:51:08.140Z,12.20
2022-10-20T23:53:35.941Z,10.48
2022-10-20T23:56:02.796Z,10.68
2022-10-20T23:58:29.773Z,12.32
